EKKA/KRP METAR and TAF weather

Enter ICAO airport designator
Station Type Date Time Source
EKKA METAR 2019/06/18 12:50 UTC NOAA

EKKA 181250Z 22007KT 180V260 9999 FEW042CB SCT050 26/15 Q1014 TEMPO -SHRA SCT040CB


Station Type Date Time Source
EKKA Decoded METAR 2019/06/18 12:50 UTC NOAA

Karup, Denmark (EKKA) 56-18N 009-07E 53M
Jun 18, 2019 - 08:50 AM EDT / 2019.06.18 1250 UTC
Wind: from the SW (220 degrees) at 8 MPH (7 KT) (direction variable):0
Visibility: greater than 7 mile(s):0
Sky conditions: partly cloudy
Weather: Cumulonimbus clouds observed
Temperature: 78 F (26 C)
Dew Point: 59 F (15 C)
Relative Humidity: 50%
Pressure (altimeter): 29.94 in. Hg (1014 hPa)
ob: EKKA 181250Z 22007KT 180V260 9999 FEW042CB SCT050 26/15 Q1014 TEMPO -SHRA SCT040CB
cycle: 13

Station Type Date Time Source
EKKA TAF 2019/06/18 12:30 UTC NOAA

TAF EKKA 181117Z 1812/1912 19008KT 9999 SCT050 SCT200
TEMPO 1812/1816 22012G25KT 6000 SHRA SCT040CB
BECMG 1816/1819 VRB05KT PROB40 1902/1904 1200 MIFG
BECMG 1907/1909 09008KT

Example: see airport list